createdAt,value
2022-08-03T00:01:53.389Z,100085.31
2022-08-03T00:04:33.975Z,100090.88
2022-08-03T00:07:05.370Z,100083.72
2022-08-03T00:09:35.479Z,100089.44
2022-08-03T00:12:03.580Z,100082.28
2022-08-03T00:14:34.399Z,100086.84
2022-08-03T00:17:02.413Z,100087.00
2022-08-03T00:19:29.932Z,100080.53
2022-08-03T00:22:01.372Z,100080.53
2022-08-03T00:24:29.335Z,100081.37
2022-08-03T00:26:57.571Z,100080.78
2022-08-03T00:29:25.180Z,100087.94
2022-08-03T00:31:59.551Z,100086.94
2022-08-03T00:34:35.263Z,100089.28
2022-08-03T00:37:16.502Z,100089.62
2022-08-03T00:39:46.380Z,100087.25
2022-08-03T00:42:14.241Z,100087.44
2022-08-03T00:44:43.351Z,100094.50
2022-08-03T00:47:11.745Z,100097.56
2022-08-03T00:49:41.089Z,100100.41
2022-08-03T00:52:10.521Z,100096.69
2022-08-03T00:54:38.735Z,100095.84
2022-08-03T00:57:10.420Z,100103.97
2022-08-03T00:59:41.404Z,100100.16
2022-08-03T01:02:09.097Z,100098.31
2022-08-03T01:04:36.903Z,100109.13
2022-08-03T01:07:19.387Z,100106.41
2022-08-03T01:09:53.374Z,100106.41
2022-08-03T01:12:56.945Z,100105.16
2022-08-03T01:15:24.461Z,100110.47
2022-08-03T01:17:58.465Z,100117.69
2022-08-03T01:20:27.896Z,100118.06
2022-08-03T01:23:22.137Z,100118.06
2022-08-03T01:25:54.437Z,100120.66
2022-08-03T01:28:34.662Z,100108.97
2022-08-03T01:31:09.389Z,100114.53
2022-08-03T01:33:41.281Z,100111.81
2022-08-03T01:38:54.448Z,100122.88
2022-08-03T01:41:35.121Z,100124.59
2022-08-03T01:44:30.250Z,100118.47
2022-08-03T01:46:57.482Z,100113.78
2022-08-03T01:49:27.824Z,100117.47
2022-08-03T01:52:04.158Z,100121.16
2022-08-03T01:54:38.569Z,100115.75
2022-08-03T01:57:07.335Z,100112.91
2022-08-03T01:59:37.057Z,100109.38
2022-08-03T02:02:15.952Z,100110.34
2022-08-03T02:04:57.201Z,100111.06
2022-08-03T02:07:26.831Z,100102.84
2022-08-03T02:09:56.242Z,100103.84
2022-08-03T02:12:25.472Z,100109.38
2022-08-03T02:14:54.552Z,100102.34
2022-08-03T02:17:38.552Z,100107.91
2022-08-03T02:20:13.478Z,100101.50
2022-08-03T02:22:43.059Z,100105.22
2022-08-03T02:25:12.202Z,100104.22
2022-08-03T02:27:44.286Z,100098.94
2022-08-03T02:30:15.398Z,100105.22
2022-08-03T02:32:47.577Z,100111.72
2022-08-03T02:35:17.546Z,100100.06
2022-08-03T02:37:49.775Z,100105.47
2022-08-03T02:40:21.056Z,100102.59
2022-08-03T02:42:52.936Z,100111.59
2022-08-03T02:45:22.893Z,100111.72
2022-08-03T02:47:57.455Z,100112.38
2022-08-03T02:50:30.407Z,100110.47
2022-08-03T02:53:03.430Z,100104.69
2022-08-03T02:55:35.181Z,100110.59
2022-08-03T02:58:04.327Z,100108.91
2022-08-03T03:00:33.786Z,100107.16
2022-08-03T03:03:03.066Z,100109.25
2022-08-03T03:05:55.754Z,100117.81
2022-08-03T03:08:27.457Z,100109.25
2022-08-03T03:10:58.536Z,100115.63
2022-08-03T03:13:32.449Z,100110.91
2022-08-03T03:16:01.675Z,100108.16
2022-08-03T03:18:31.126Z,100105.84
2022-08-03T03:23:36.442Z,100115.16
2022-08-03T03:26:08.435Z,100110.97
2022-08-03T03:28:39.507Z,100108.63
2022-08-03T03:31:07.640Z,100112.31
2022-08-03T03:33:35.586Z,100106.81
2022-08-03T03:36:04.918Z,100109.50
2022-08-03T03:38:32.953Z,100117.50
2022-08-03T03:41:00.767Z,100118.50
2022-08-03T03:43:29.691Z,100120.22
2022-08-03T03:45:58.341Z,100117.03
2022-08-03T03:48:26.519Z,100118.87
2022-08-03T03:50:54.644Z,100121.69
2022-08-03T03:53:22.227Z,100126.69
2022-08-03T03:55:59.086Z,100120.50
2022-08-03T03:58:31.770Z,100128.28
2022-08-03T04:00:59.751Z,100124.97
2022-08-03T04:03:27.840Z,100129.53
2022-08-03T04:06:14.121Z,100131.31
2022-08-03T04:09:00.553Z,100125.47
2022-08-03T04:11:32.025Z,100133.47
2022-08-03T04:14:21.458Z,100130.75
2022-08-03T04:16:55.479Z,100137.97
2022-08-03T04:19:32.481Z,100134.56
2022-08-03T04:22:02.894Z,100146.22
2022-08-03T04:27:09.551Z,100153.22
2022-08-03T04:29:48.554Z,100138.87
2022-08-03T04:32:17.240Z,100147.81
2022-08-03T04:34:45.581Z,100145.22
2022-08-03T04:37:15.371Z,100140.44
2022-08-03T04:39:44.268Z,100149.41
2022-08-03T04:42:15.073Z,100145.13
2022-08-03T04:44:43.012Z,100151.50
2022-08-03T04:47:10.597Z,100150.62
2022-08-03T04:49:38.995Z,100157.88
2022-08-03T04:52:08.377Z,100156.03
2022-08-03T04:57:23.192Z,100162.44
2022-08-03T05:00:01.279Z,100165.00
2022-08-03T05:02:30.520Z,100164.16
2022-08-03T05:05:02.458Z,100171.16
2022-08-03T05:07:36.216Z,100180.09
2022-08-03T05:10:11.707Z,100173.59
2022-08-03T05:12:43.918Z,100174.47
2022-08-03T05:15:11.983Z,100178.88
2022-08-03T05:17:39.668Z,100177.16
2022-08-03T05:20:07.910Z,100180.72
2022-08-03T05:22:35.449Z,100180.66
2022-08-03T05:25:03.176Z,100185.16
2022-08-03T05:27:34.486Z,100185.06
2022-08-03T05:30:30.993Z,100189.47
2022-08-03T05:32:53.485Z,100187.75
2022-08-03T05:36:01.669Z,100188.47
2022-08-03T05:38:12.456Z,100194.00
2022-08-03T05:40:40.213Z,100199.28
2022-08-03T05:43:25.094Z,100201.12
2022-08-03T05:46:11.567Z,100202.97
2022-08-03T05:48:41.395Z,100201.25
2022-08-03T05:51:12.581Z,100203.84
2022-08-03T05:53:41.032Z,100200.28
2022-08-03T05:56:13.746Z,100207.38
2022-08-03T05:58:43.737Z,100205.44
